createdAt,value
2022-10-24T00:01:17.330Z,84.20
2022-10-24T00:03:44.729Z,84.20
2022-10-24T00:06:12.772Z,84.20
2022-10-24T00:08:41.741Z,84.30
2022-10-24T00:11:19.476Z,84.20
2022-10-24T00:13:46.244Z,84.10
2022-10-24T00:16:13.441Z,84.10
2022-10-24T00:18:40.256Z,84.20
2022-10-24T00:21:07.905Z,84.10
2022-10-24T00:23:34.887Z,84.10
2022-10-24T00:26:01.998Z,84.10
2022-10-24T00:28:30.517Z,84.00
2022-10-24T00:30:58.024Z,84.00
2022-10-24T00:33:25.081Z,84.00
2022-10-24T00:35:52.007Z,83.90
2022-10-24T00:38:18.690Z,83.90
2022-10-24T00:40:45.560Z,83.80
2022-10-24T00:43:22.973Z,83.70
2022-10-24T00:45:58.521Z,83.60
2022-10-24T00:48:50.046Z,83.60
2022-10-24T00:51:25.389Z,83.40
2022-10-24T00:56:39.223Z,83.30
2022-10-24T00:59:08.716Z,83.30
2022-10-24T01:01:36.019Z,83.20
2022-10-24T01:04:03.013Z,83.00
2022-10-24T01:06:37.943Z,82.80
2022-10-24T01:09:13.662Z,82.60
2022-10-24T01:11:57.177Z,82.50
2022-10-24T01:14:38.307Z,82.10
2022-10-24T01:17:40.215Z,82.10
2022-10-24T01:20:21.964Z,81.70
2022-10-24T01:23:06.596Z,81.60
2022-10-24T01:26:01.129Z,81.60
2022-10-24T01:28:35.571Z,81.20
2022-10-24T01:31:11.704Z,81.30
2022-10-24T01:33:49.094Z,81.10
2022-10-24T01:36:33.136Z,80.90
2022-10-24T01:39:03.116Z,80.50
2022-10-24T01:41:33.198Z,80.50
2022-10-24T01:44:05.528Z,80.30
2022-10-24T01:46:43.729Z,80.20
2022-10-24T01:49:17.656Z,80.00
2022-10-24T01:51:46.723Z,80.40
2022-10-24T01:54:14.524Z,79.50
2022-10-24T01:56:41.266Z,79.40
2022-10-24T01:59:30.515Z,79.20
2022-10-24T02:02:04.443Z,79.00
2022-10-24T02:04:34.346Z,79.00
2022-10-24T02:07:04.193Z,78.90
2022-10-24T02:09:32.952Z,78.60
2022-10-24T02:12:00.868Z,78.40
2022-10-24T02:14:38.635Z,78.40
2022-10-24T02:17:05.574Z,78.30
2022-10-24T02:19:32.823Z,78.10
2022-10-24T02:22:22.097Z,77.90
2022-10-24T02:24:51.545Z,77.40
2022-10-24T02:27:37.535Z,77.70
2022-10-24T02:30:12.305Z,77.00
2022-10-24T02:32:45.606Z,77.10
2022-10-24T02:35:15.600Z,76.90
2022-10-24T02:37:55.075Z,76.90
2022-10-24T02:40:23.076Z,76.40
2022-10-24T02:42:54.937Z,76.40
2022-10-24T02:45:22.842Z,76.50
2022-10-24T02:47:52.917Z,76.40
2022-10-24T02:50:19.977Z,76.20
2022-10-24T02:52:47.059Z,76.90
2022-10-24T02:55:14.094Z,76.00
2022-10-24T02:57:40.765Z,75.90
2022-10-24T03:00:08.324Z,75.70
2022-10-24T03:02:35.027Z,75.70
2022-10-24T03:05:01.744Z,75.50
2022-10-24T03:07:28.476Z,75.40
2022-10-24T03:09:55.215Z,75.50
2022-10-24T03:12:23.105Z,75.50
2022-10-24T03:14:49.762Z,75.40
2022-10-24T03:17:16.501Z,75.30
2022-10-24T03:19:45.108Z,75.20
2022-10-24T03:22:11.889Z,75.00
2022-10-24T03:24:44.607Z,75.00
2022-10-24T03:27:21.556Z,74.80
2022-10-24T03:29:48.300Z,74.80
2022-10-24T03:32:15.161Z,74.80
2022-10-24T03:34:41.951Z,75.00
2022-10-24T03:37:08.658Z,74.50
2022-10-24T03:39:35.316Z,74.50
2022-10-24T03:42:01.999Z,74.50
2022-10-24T03:44:28.836Z,74.40
2022-10-24T03:46:55.585Z,74.20
2022-10-24T03:49:22.265Z,74.10
2022-10-24T03:51:49.054Z,73.80
2022-10-24T03:54:15.748Z,73.60
2022-10-24T03:56:43.873Z,73.60
2022-10-24T03:59:10.735Z,73.90
2022-10-24T04:01:37.477Z,73.60
2022-10-24T04:04:04.363Z,73.50
2022-10-24T04:06:34.011Z,73.40
2022-10-24T04:09:03.761Z,73.30
2022-10-24T04:11:30.628Z,73.30
2022-10-24T04:13:57.867Z,73.10
2022-10-24T04:16:24.663Z,73.10
2022-10-24T04:18:51.686Z,73.10
2022-10-24T04:21:21.832Z,73.20
2022-10-24T04:23:49.172Z,73.30
2022-10-24T04:26:17.334Z,73.10
2022-10-24T04:28:46.738Z,73.30
2022-10-24T04:31:15.903Z,73.30
2022-10-24T04:33:44.987Z,73.20
2022-10-24T04:36:11.829Z,73.30
2022-10-24T04:38:38.532Z,73.10
2022-10-24T04:41:07.387Z,73.20
2022-10-24T04:43:36.622Z,73.10
2022-10-24T04:46:03.401Z,73.00
2022-10-24T04:48:30.057Z,73.00
2022-10-24T04:50:56.735Z,72.90
2022-10-24T04:53:23.899Z,72.90
2022-10-24T04:55:50.896Z,73.00
2022-10-24T04:58:17.674Z,72.90
2022-10-24T05:00:46.654Z,73.10
2022-10-24T05:03:14.204Z,73.10
2022-10-24T05:05:40.939Z,73.20
2022-10-24T05:08:07.610Z,73.20
2022-10-24T05:10:34.288Z,73.30
2022-10-24T05:13:01.106Z,73.20
2022-10-24T05:15:29.896Z,73.00
2022-10-24T05:17:59.764Z,73.20
2022-10-24T05:20:27.052Z,73.00
2022-10-24T05:22:53.851Z,73.00
2022-10-24T05:25:20.731Z,73.00
2022-10-24T05:27:47.659Z,72.70
2022-10-24T05:30:14.821Z,73.60
2022-10-24T05:32:41.962Z,72.70
2022-10-24T05:35:09.386Z,72.50
2022-10-24T05:37:36.676Z,72.60
2022-10-24T05:40:03.543Z,72.70
2022-10-24T05:42:30.205Z,72.70
2022-10-24T05:44:56.907Z,72.60
2022-10-24T05:47:25.721Z,72.50
2022-10-24T05:49:55.076Z,72.50
2022-10-24T05:52:21.731Z,72.50
2022-10-24T05:55:02.422Z,72.70
2022-10-24T05:57:33.455Z,72.70
2022-10-24T06:00:00.737Z,72.50
2022-10-24T06:02:27.665Z,72.60
2022-10-24T06:04:56.137Z,72.50
2022-10-24T06:07:23.217Z,72.50
2022-10-24T06:09:50.111Z,72.30
2022-10-24T06:12:17.059Z,72.30
2022-10-24T06:14:44.684Z,72.30
2022-10-24T06:17:12.014Z,72.30
2022-10-24T06:19:39.827Z,72.50
2022-10-24T06:22:08.527Z,72.40
2022-10-24T06:24:36.612Z,72.70
2022-10-24T06:27:04.208Z,72.70
2022-10-24T06:29:31.223Z,72.70
2022-10-24T06:31:57.969Z,72.80
2022-10-24T06:34:24.814Z,72.80
2022-10-24T06:36:51.669Z,72.80
2022-10-24T06:39:18.424Z,72.70
2022-10-24T06:41:45.173Z,72.60
2022-10-24T06:44:12.118Z,72.60
2022-10-24T06:46:38.978Z,72.50
2022-10-24T06:49:05.781Z,72.50
2022-10-24T06:51:32.865Z,72.30
2022-10-24T06:53:59.992Z,72.30
2022-10-24T06:56:26.832Z,72.60
2022-10-24T06:58:53.506Z,72.50
2022-10-24T07:01:22.846Z,72.10
2022-10-24T07:03:50.327Z,72.20
2022-10-24T07:06:24.342Z,72.30
2022-10-24T07:08:52.852Z,72.30
2022-10-24T07:11:19.999Z,72.50
2022-10-24T07:13:46.938Z,72.50
2022-10-24T07:16:13.749Z,72.30
2022-10-24T07:18:40.914Z,72.20
2022-10-24T07:21:18.435Z,72.30
2022-10-24T07:23:45.236Z,72.40
2022-10-24T07:26:17.350Z,72.50
2022-10-24T07:28:46.493Z,72.50
2022-10-24T07:31:17.086Z,72.50
2022-10-24T07:33:43.857Z,72.40
2022-10-24T07:36:10.693Z,72.50
2022-10-24T07:38:37.439Z,72.60
2022-10-24T07:41:05.671Z,72.60
2022-10-24T07:43:32.735Z,72.60
2022-10-24T07:46:02.606Z,72.70
2022-10-24T07:48:29.328Z,72.70
2022-10-24T07:50:56.005Z,72.70
2022-10-24T07:53:22.663Z,72.70
2022-10-24T07:55:49.509Z,72.70
2022-10-24T07:58:16.287Z,72.80
2022-10-24T08:00:45.396Z,72.70
2022-10-24T08:03:12.571Z,72.30
2022-10-24T08:05:42.888Z,72.30
2022-10-24T08:08:30.793Z,73.10
2022-10-24T08:10:56.264Z,71.90
2022-10-24T08:13:22.974Z,72.40
2022-10-24T08:15:49.667Z,72.30
2022-10-24T08:18:16.390Z,72.30
2022-10-24T08:20:43.397Z,72.20
2022-10-24T08:23:10.102Z,72.20
2022-10-24T08:25:41.338Z,72.20
2022-10-24T08:28:09.144Z,72.10
2022-10-24T08:30:36.122Z,72.30
2022-10-24T08:33:02.896Z,72.50
2022-10-24T08:35:29.561Z,72.40
2022-10-24T08:37:56.222Z,72.50
2022-10-24T08:40:22.952Z,72.60
2022-10-24T08:42:50.003Z,72.40
2022-10-24T08:45:34.035Z,72.30
2022-10-24T08:48:09.826Z,72.10
2022-10-24T08:50:40.322Z,71.90
2022-10-24T08:53:25.716Z,72.00
2022-10-24T08:55:54.613Z,71.80
2022-10-24T08:58:27.886Z,71.70
2022-10-24T09:00:57.609Z,71.90
2022-10-24T09:03:54.898Z,71.80
2022-10-24T09:06:26.367Z,71.80
2022-10-24T09:08:56.395Z,71.70
2022-10-24T09:11:44.063Z,71.50
2022-10-24T09:14:19.562Z,71.30
2022-10-24T09:17:12.554Z,71.20
2022-10-24T09:19:39.594Z,71.10
2022-10-24T09:22:07.856Z,71.10
2022-10-24T09:24:41.252Z,70.70
2022-10-24T09:27:17.060Z,70.70
2022-10-24T09:29:44.000Z,70.80
2022-10-24T09:32:20.156Z,70.80
2022-10-24T09:34:47.300Z,70.70
2022-10-24T09:37:40.493Z,71.00
2022-10-24T09:40:33.487Z,70.80
2022-10-24T09:43:16.588Z,71.10
2022-10-24T09:45:51.014Z,71.40
2022-10-24T09:48:26.169Z,71.80
2022-10-24T09:50:56.887Z,71.90
2022-10-24T09:53:36.227Z,72.30
2022-10-24T09:56:14.992Z,73.00
2022-10-24T09:58:42.523Z,73.80
2022-10-24T10:01:15.091Z,74.10
2022-10-24T10:03:43.192Z,74.10
2022-10-24T10:06:20.855Z,74.10
2022-10-24T10:08:55.398Z,74.20
2022-10-24T10:11:35.216Z,74.20
2022-10-24T10:14:15.775Z,74.20
2022-10-24T10:16:42.631Z,74.20
2022-10-24T10:19:18.322Z,74.10
2022-10-24T10:22:07.314Z,74.10
2022-10-24T10:24:43.272Z,74.10
2022-10-24T10:27:40.210Z,73.80
2022-10-24T10:30:13.382Z,73.80
2022-10-24T10:32:57.568Z,73.90
2022-10-24T10:35:37.917Z,73.70
2022-10-24T10:38:10.490Z,73.90
2022-10-24T10:40:44.423Z,73.80
2022-10-24T10:43:29.759Z,73.80
2022-10-24T10:46:12.081Z,73.90
2022-10-24T10:49:08.754Z,73.50
2022-10-24T10:51:38.507Z,73.40
2022-10-24T10:54:08.304Z,73.60
2022-10-24T10:56:41.322Z,73.40
2022-10-24T10:59:32.605Z,72.90
2022-10-24T11:02:22.383Z,72.70
2022-10-24T11:05:00.928Z,72.50
2022-10-24T11:07:42.052Z,72.60
2022-10-24T11:10:13.500Z,72.50
2022-10-24T11:12:43.038Z,72.40
2022-10-24T11:15:27.434Z,72.70
2022-10-24T11:18:15.886Z,72.30
2022-10-24T11:20:57.770Z,72.30
2022-10-24T11:23:57.102Z,72.40
2022-10-24T11:26:28.654Z,72.30
2022-10-24T11:29:04.161Z,72.50
2022-10-24T11:31:39.158Z,72.70
2022-10-24T11:34:18.236Z,73.10
2022-10-24T11:36:58.442Z,74.70
2022-10-24T11:39:27.989Z,75.90
2022-10-24T11:42:05.825Z,76.60
2022-10-24T11:44:53.689Z,77.20
2022-10-24T11:47:26.239Z,77.70
2022-10-24T11:50:07.060Z,78.00
2022-10-24T11:52:40.017Z,77.90
2022-10-24T11:55:17.043Z,78.00
2022-10-24T11:57:46.116Z,78.20
2022-10-24T12:00:23.743Z,78.20
2022-10-24T12:03:08.759Z,77.80
2022-10-24T12:06:36.917Z,77.50
2022-10-24T12:09:11.158Z,77.10
2022-10-24T12:12:11.204Z,76.70
2022-10-24T12:14:56.775Z,76.20
2022-10-24T12:17:59.996Z,75.90
2022-10-24T12:20:27.535Z,75.70
2022-10-24T12:22:55.324Z,75.90
2022-10-24T12:25:36.091Z,76.10
2022-10-24T12:28:12.226Z,76.40
2022-10-24T12:30:39.654Z,76.10
2022-10-24T12:33:11.205Z,76.50
2022-10-24T12:35:40.945Z,76.20
2022-10-24T12:38:27.439Z,76.20
2022-10-24T12:40:58.642Z,76.40
2022-10-24T12:43:44.298Z,75.30
2022-10-24T12:46:39.695Z,75.60
2022-10-24T12:49:09.337Z,75.80
2022-10-24T12:51:42.023Z,75.10
2022-10-24T12:54:11.493Z,75.30
2022-10-24T12:57:02.179Z,75.30
2022-10-24T12:59:33.953Z,75.00
2022-10-24T13:02:16.036Z,75.80
2022-10-24T13:05:32.074Z,76.30
2022-10-24T13:08:08.530Z,76.50
2022-10-24T13:11:03.086Z,76.90
2022-10-24T13:13:35.612Z,77.20
2022-10-24T13:16:19.443Z,77.70
2022-10-24T13:19:19.436Z,77.90
2022-10-24T13:21:48.141Z,78.90
2022-10-24T13:24:19.800Z,79.10
2022-10-24T13:26:58.214Z,79.50
2022-10-24T13:29:27.637Z,79.70
2022-10-24T13:32:18.632Z,80.00
2022-10-24T13:34:50.548Z,80.30
2022-10-24T13:37:33.968Z,80.50
2022-10-24T13:40:27.864Z,80.60
2022-10-24T13:42:59.496Z,80.50
2022-10-24T13:45:36.242Z,80.20
2022-10-24T13:48:23.808Z,80.10
2022-10-24T13:50:56.385Z,79.90
2022-10-24T13:53:30.839Z,80.00
2022-10-24T13:56:03.215Z,80.00
2022-10-24T13:58:40.981Z,79.90
2022-10-24T14:01:25.443Z,79.90
2022-10-24T14:03:53.257Z,79.90
2022-10-24T14:06:25.738Z,79.90
2022-10-24T14:09:05.569Z,79.60
2022-10-24T14:11:35.163Z,79.50
2022-10-24T14:14:07.136Z,80.50
2022-10-24T14:16:35.656Z,79.50
2022-10-24T14:19:16.664Z,79.50
2022-10-24T14:21:46.215Z,79.40
2022-10-24T14:24:22.306Z,79.00
2022-10-24T14:26:53.162Z,79.00
2022-10-24T14:29:28.738Z,78.90
2022-10-24T14:32:01.210Z,78.70
2022-10-24T14:34:33.781Z,78.80
2022-10-24T14:37:25.932Z,78.90
2022-10-24T14:39:53.800Z,79.00
2022-10-24T14:42:20.978Z,78.80
2022-10-24T14:44:49.534Z,78.70
2022-10-24T14:47:27.526Z,78.40
2022-10-24T14:49:56.719Z,78.20
2022-10-24T14:52:36.361Z,77.40
2022-10-24T14:55:06.379Z,76.90
2022-10-24T14:57:35.407Z,76.70
2022-10-24T15:00:09.689Z,76.50
2022-10-24T15:02:42.857Z,76.40
2022-10-24T15:05:15.743Z,76.40
2022-10-24T15:07:57.202Z,76.10
2022-10-24T15:10:38.192Z,76.30
2022-10-24T15:13:15.438Z,76.30
2022-10-24T15:15:55.296Z,76.40
2022-10-24T15:18:36.433Z,76.20
2022-10-24T15:21:07.270Z,76.10
2022-10-24T15:23:37.709Z,76.10
2022-10-24T15:26:16.827Z,76.20
2022-10-24T15:29:12.306Z,76.00
2022-10-24T15:31:41.794Z,75.80
2022-10-24T15:34:13.101Z,76.10
2022-10-24T15:36:41.790Z,76.20
2022-10-24T15:39:11.183Z,76.30
2022-10-24T15:41:39.302Z,76.40
2022-10-24T15:44:16.271Z,76.50
2022-10-24T15:46:43.638Z,76.50
2022-10-24T15:49:10.388Z,76.30
2022-10-24T15:51:38.623Z,76.30
2022-10-24T15:54:05.729Z,76.30
2022-10-24T15:56:32.539Z,76.30
2022-10-24T15:58:59.207Z,76.30
2022-10-24T16:01:29.982Z,76.30
2022-10-24T16:03:58.002Z,76.20
2022-10-24T16:06:25.948Z,76.10
2022-10-24T16:08:53.069Z,76.20
2022-10-24T16:11:19.852Z,76.20
2022-10-24T16:13:46.986Z,76.20
2022-10-24T16:16:13.744Z,76.20
2022-10-24T16:18:40.569Z,76.40
2022-10-24T16:21:07.342Z,76.30
2022-10-24T16:23:34.202Z,76.30
2022-10-24T16:26:00.880Z,76.40
2022-10-24T16:28:28.834Z,76.50
2022-10-24T16:30:55.622Z,76.50
2022-10-24T16:33:22.449Z,76.60
2022-10-24T16:35:49.385Z,76.70
2022-10-24T16:38:16.125Z,76.80
2022-10-24T16:40:46.249Z,77.70
2022-10-24T16:43:15.947Z,76.90
2022-10-24T16:45:43.189Z,76.90
2022-10-24T16:48:10.761Z,77.00
2022-10-24T16:50:41.734Z,77.10
2022-10-24T16:53:08.921Z,77.10
2022-10-24T16:55:35.946Z,77.20
2022-10-24T16:58:02.682Z,77.30
2022-10-24T17:00:30.332Z,77.30
2022-10-24T17:02:58.087Z,77.30
2022-10-24T17:05:28.309Z,77.40
2022-10-24T17:07:55.669Z,77.50
2022-10-24T17:10:24.763Z,78.40
2022-10-24T17:12:52.129Z,77.60
2022-10-24T17:15:22.048Z,77.80
2022-10-24T17:17:49.917Z,77.80
2022-10-24T17:20:17.649Z,77.80
2022-10-24T17:22:45.635Z,77.80
2022-10-24T17:25:26.774Z,77.70
2022-10-24T17:27:55.098Z,77.80
2022-10-24T17:30:25.408Z,77.90
2022-10-24T17:32:52.465Z,78.10
2022-10-24T17:35:22.026Z,78.20
2022-10-24T17:37:54.851Z,78.20
2022-10-24T17:40:25.098Z,79.10
2022-10-24T17:42:52.195Z,78.40
2022-10-24T17:45:21.998Z,78.40
2022-10-24T17:47:49.024Z,78.40
2022-10-24T17:50:17.142Z,78.50
2022-10-24T17:52:50.174Z,78.50
2022-10-24T17:55:41.319Z,78.60
2022-10-24T17:58:10.270Z,78.60
2022-10-24T18:00:37.177Z,78.80
2022-10-24T18:03:04.298Z,78.80
2022-10-24T18:05:31.816Z,78.90
2022-10-24T18:07:58.522Z,79.00
2022-10-24T18:10:25.903Z,79.10
2022-10-24T18:12:52.795Z,79.20
2022-10-24T18:15:20.168Z,79.30
2022-10-24T18:17:47.803Z,79.50
2022-10-24T18:20:15.835Z,79.60
2022-10-24T18:22:44.100Z,79.90
2022-10-24T18:25:12.774Z,80.10
2022-10-24T18:27:40.907Z,80.30
2022-10-24T18:30:08.608Z,80.40
2022-10-24T18:32:35.657Z,80.70
2022-10-24T18:35:02.375Z,80.90
2022-10-24T18:37:29.067Z,81.00
2022-10-24T18:39:56.075Z,82.10
2022-10-24T18:42:44.436Z,81.60
2022-10-24T18:45:19.854Z,81.60
2022-10-24T18:47:47.540Z,81.70
2022-10-24T18:50:19.714Z,81.90
2022-10-24T18:53:04.605Z,82.00
2022-10-24T18:55:32.768Z,82.00
2022-10-24T18:57:59.717Z,82.30
2022-10-24T19:00:28.908Z,82.20
2022-10-24T19:03:15.072Z,82.30
2022-10-24T19:05:52.033Z,82.30
2022-10-24T19:08:23.804Z,82.30
2022-10-24T19:10:52.831Z,82.30
2022-10-24T19:13:19.559Z,82.30
2022-10-24T19:15:55.871Z,82.20
2022-10-24T19:18:23.006Z,82.20
2022-10-24T19:20:49.809Z,82.20
2022-10-24T19:23:17.682Z,82.20
2022-10-24T19:25:45.170Z,82.10
2022-10-24T19:28:16.554Z,82.20
2022-10-24T19:30:44.762Z,82.20
2022-10-24T19:33:13.924Z,82.10
2022-10-24T19:35:46.686Z,82.20
2022-10-24T19:38:14.870Z,82.20
2022-10-24T19:40:52.873Z,82.30
2022-10-24T19:43:23.962Z,82.30
2022-10-24T19:46:07.493Z,82.40
2022-10-24T19:48:42.490Z,82.30
2022-10-24T19:51:11.426Z,82.30
2022-10-24T19:53:40.449Z,83.10
2022-10-24T19:56:12.493Z,82.20
2022-10-24T19:58:40.304Z,82.20
2022-10-24T20:01:12.759Z,82.20
2022-10-24T20:03:41.980Z,82.20
2022-10-24T20:06:09.091Z,82.30
2022-10-24T20:08:36.845Z,82.40
2022-10-24T20:11:04.769Z,82.50
2022-10-24T20:13:31.731Z,82.60
2022-10-24T20:16:00.534Z,82.90
2022-10-24T20:18:29.056Z,83.00
2022-10-24T20:20:56.452Z,83.30
2022-10-24T20:23:24.734Z,84.30
2022-10-24T20:26:00.866Z,83.90
2022-10-24T20:28:27.920Z,84.50
2022-10-24T20:30:55.212Z,84.80
2022-10-24T20:33:21.924Z,85.20
2022-10-24T20:35:48.584Z,85.20
2022-10-24T20:38:15.245Z,85.20
2022-10-24T20:40:41.971Z,85.70
2022-10-24T20:43:09.228Z,85.70
2022-10-24T20:45:40.278Z,85.80
2022-10-24T20:48:07.097Z,85.90
2022-10-24T20:50:34.669Z,86.20
2022-10-24T20:53:01.799Z,86.30
2022-10-24T20:55:32.282Z,86.50
2022-10-24T20:58:13.522Z,86.50
2022-10-24T21:03:12.156Z,87.00
2022-10-24T21:05:39.044Z,86.70
2022-10-24T21:08:06.040Z,86.70
2022-10-24T21:10:32.718Z,86.60
2022-10-24T21:12:59.453Z,86.70
2022-10-24T21:15:26.127Z,86.80
2022-10-24T21:17:52.815Z,87.70
2022-10-24T21:20:19.557Z,86.70
2022-10-24T21:22:46.251Z,86.80
2022-10-24T21:25:12.924Z,86.80
2022-10-24T21:27:39.619Z,86.60
2022-10-24T21:30:10.902Z,86.60
2022-10-24T21:32:40.328Z,86.60
2022-10-24T21:35:07.327Z,86.60
2022-10-24T21:37:34.060Z,86.60
2022-10-24T21:40:00.748Z,86.60
2022-10-24T21:42:30.434Z,86.60
2022-10-24T21:44:57.344Z,86.50
2022-10-24T21:47:24.103Z,86.50
2022-10-24T21:49:50.773Z,86.50
2022-10-24T21:52:17.485Z,86.60
2022-10-24T21:54:44.230Z,86.60
2022-10-24T21:57:10.879Z,86.60
2022-10-24T21:59:38.925Z,86.50
2022-10-24T22:02:05.750Z,86.30
2022-10-24T22:04:32.704Z,86.40
2022-10-24T22:06:59.398Z,86.30
2022-10-24T22:09:26.308Z,86.50
2022-10-24T22:11:57.800Z,86.50
2022-10-24T22:14:25.220Z,86.50
2022-10-24T22:16:52.258Z,86.40
2022-10-24T22:19:19.355Z,86.30
2022-10-24T22:21:48.435Z,86.40
2022-10-24T22:24:24.674Z,86.40
2022-10-24T22:26:52.151Z,86.50
2022-10-24T22:29:22.025Z,86.50
2022-10-24T22:31:50.517Z,86.60
2022-10-24T22:34:23.204Z,86.50
2022-10-24T22:37:13.148Z,86.50
2022-10-24T22:39:40.200Z,86.60
2022-10-24T22:42:13.499Z,86.70
2022-10-24T22:44:43.693Z,86.70
2022-10-24T22:47:48.849Z,86.90
2022-10-24T22:50:30.389Z,87.00
2022-10-24T22:52:57.271Z,87.10
2022-10-24T22:55:35.280Z,87.20
2022-10-24T22:58:02.218Z,87.30
2022-10-24T23:00:29.447Z,87.20
2022-10-24T23:03:14.190Z,87.20
2022-10-24T23:08:37.643Z,87.30
2022-10-24T23:11:05.149Z,87.50
2022-10-24T23:13:32.621Z,87.50
2022-10-24T23:16:09.565Z,87.60
2022-10-24T23:18:36.579Z,87.70
2022-10-24T23:21:33.134Z,87.80
2022-10-24T23:24:00.144Z,87.80
2022-10-24T23:26:41.375Z,87.90
2022-10-24T23:29:35.083Z,88.00
2022-10-24T23:32:03.554Z,88.10
2022-10-24T23:34:30.555Z,88.30
2022-10-24T23:37:02.330Z,88.30
2022-10-24T23:39:34.553Z,88.50
2022-10-24T23:42:02.016Z,88.40
2022-10-24T23:44:29.021Z,88.60
2022-10-24T23:47:34.047Z,88.50
2022-10-24T23:50:13.013Z,88.60
2022-10-24T23:53:01.705Z,88.60
2022-10-24T23:55:28.726Z,88.60
2022-10-24T23:57:55.556Z,88.60
